Terminal Aerodrome Forecast
Issued by NWS

Home | Current Version | Previous Version | Text Only | Print | Product List | Glossary On
Versions: 1 2 3 4 5 6 7 8 9 10 11 12 13 14 15
146
FTUS42 KILM 211120
TAFCRE
TAF
KCRE 211120Z 2112/2212 24005KT P6SM FEW250
     FM211700 21010G19KT P6SM SCT050 SCT250
     FM220200 22010KT P6SM FEW200
     FM220600 24005KT P6SM SKC=

USA.gov is the U.S. government's official web portal to all federal, state and local government web resources and services.